Página principal
METAR-TAF:

METAR-TAF

Aeroportos :

Buckland, Alasca, Estados Unidos

latitude: 65-58-56N, longitude: 161-09-07W, altura: 7 m

Observação actual do tempo

O boletim foi feito há 1 hora e 1 minutos, às 10:56 UTC
Vento 6 kt de noroeste
Temperatura 11°C
Humidade 76%
Pressão 1018 hPa
Visibilidade: 16.1 km
Encobertoa uma altura de 8000 ft

METAR: PABL 201056Z AUTO 32006KT 10SM OVC080 11/07 A3006 RMK AO2 SLP182 T01060067

Hora: 03:57 (11:57 UTC)


TAF: em falta

Observações e previsões do tempo de mais de 4000 aeroportos (mensagens METAR e TAF).

As estações disponíveis são os pontos amarelos e vermelhos sobre o mapa.

Mova o rato sobre o mapa para ver o nome da estação.

Depois clique no ponto para visualizar as observações e previsões meteorológicas.

Para alterar o mapa : clique nos botões verdes com uma cruz preta para aumentar o zoom; no botão verde com uma pitada de zoom; ou nas setas verdes para mapas adjacentes.


METAR-TAF: